Terminal Aerodrome Forecast
Issued by NWS Cleveland, OH

Home | Current Version | Previous Version | Text Only | Print | Product List | Glossary On
Versions: 1 2 3 4 5 6 7 8 9 10 11 12 13 14 15 16 17 18
000
FTUS41 KCLE 191140
TAFTOL
TAF
KTOL 191140Z 1912/2012 24007KT P6SM OVC009
     FM191700 20005KT P6SM BKN100 OVC250
     FM200000 08005KT P6SM OVC100
     FM200700 06005KT 6SM -RA OVC040
     FM200900 06005KT 2SM -RA BR OVC005=

USA.gov is the U.S. government's official web portal to all federal, state and local government web resources and services.